sensor_id;sensor_type;location;lat;lon;timestamp;P1;durP1;ratioP1;P2;durP2;ratioP2
6955;SDS011;50345;51.136;16.886;2022-08-06T00:01:35;6.53;;;6.03;;
6955;SDS011;50345;51.136;16.886;2022-08-06T00:04:01;8.03;;;7.27;;
6955;SDS011;50345;51.136;16.886;2022-08-06T00:06:27;7.87;;;7.13;;
6955;SDS011;50345;51.136;16.886;2022-08-06T00:08:52;7.43;;;6.90;;
6955;SDS011;50345;51.136;16.886;2022-08-06T00:11:18;7.33;;;6.73;;
6955;SDS011;50345;51.136;16.886;2022-08-06T00:13:44;8.03;;;7.33;;
6955;SDS011;50345;51.136;16.886;2022-08-06T00:16:09;7.90;;;7.20;;
6955;SDS011;50345;51.136;16.886;2022-08-06T00:18:35;7.87;;;7.07;;
6955;SDS011;50345;51.136;16.886;2022-08-06T00:21:01;6.27;;;5.73;;
6955;SDS011;50345;51.136;16.886;2022-08-06T00:23:26;9.60;;;6.90;;
6955;SDS011;50345;51.136;16.886;2022-08-06T00:25:52;7.13;;;6.53;;
6955;SDS011;50345;51.136;16.886;2022-08-06T00:28:22;7.50;;;6.90;;
6955;SDS011;50345;51.136;16.886;2022-08-06T00:30:49;6.40;;;6.00;;
6955;SDS011;50345;51.136;16.886;2022-08-06T00:33:15;6.43;;;5.93;;
6955;SDS011;50345;51.136;16.886;2022-08-06T00:35:40;7.50;;;6.97;;
6955;SDS011;50345;51.136;16.886;2022-08-06T00:38:06;6.90;;;6.43;;
6955;SDS011;50345;51.136;16.886;2022-08-06T00:40:32;8.43;;;6.47;;
6955;SDS011;50345;51.136;16.886;2022-08-06T00:42:58;9.37;;;6.10;;
6955;SDS011;50345;51.136;16.886;2022-08-06T00:45:25;7.20;;;6.60;;
6955;SDS011;50345;51.136;16.886;2022-08-06T00:47:51;6.60;;;5.90;;
6955;SDS011;50345;51.136;16.886;2022-08-06T00:50:17;7.30;;;6.60;;
6955;SDS011;50345;51.136;16.886;2022-08-06T00:52:42;6.73;;;6.13;;
6955;SDS011;50345;51.136;16.886;2022-08-06T00:55:10;6.83;;;6.10;;
6955;SDS011;50345;51.136;16.886;2022-08-06T00:57:36;6.33;;;5.70;;
6955;SDS011;50345;51.136;16.886;2022-08-06T01:00:03;7.10;;;6.50;;
6955;SDS011;50345;51.136;16.886;2022-08-06T01:02:30;6.33;;;5.73;;
6955;SDS011;50345;51.136;16.886;2022-08-06T01:04:56;6.10;;;5.50;;
6955;SDS011;50345;51.136;16.886;2022-08-06T01:07:21;6.73;;;6.13;;
6955;SDS011;50345;51.136;16.886;2022-08-06T01:09:47;6.33;;;5.93;;
6955;SDS011;50345;51.136;16.886;2022-08-06T01:12:14;6.00;;;5.60;;
6955;SDS011;50345;51.136;16.886;2022-08-06T01:14:40;6.67;;;6.17;;
6955;SDS011;50345;51.136;16.886;2022-08-06T01:17:26;6.47;;;5.97;;
6955;SDS011;50345;51.136;16.886;2022-08-06T01:28:38;7.67;;;7.07;;
6955;SDS011;50345;51.136;16.886;2022-08-06T01:31:13;9.23;;;8.33;;
6955;SDS011;50345;51.136;16.886;2022-08-06T01:33:44;9.30;;;8.30;;
6955;SDS011;50345;51.136;16.886;2022-08-06T01:36:20;10.20;;;9.40;;
6955;SDS011;50345;51.136;16.886;2022-08-06T01:38:51;10.10;;;9.37;;
6955;SDS011;50345;51.136;16.886;2022-08-06T01:41:21;9.70;;;8.80;;
6955;SDS011;50345;51.136;16.886;2022-08-06T01:44:03;9.30;;;8.60;;
6955;SDS011;50345;51.136;16.886;2022-08-06T01:46:41;9.17;;;8.40;;
6955;SDS011;50345;51.136;16.886;2022-08-06T01:49:10;8.00;;;7.40;;
6955;SDS011;50345;51.136;16.886;2022-08-06T01:51:38;7.73;;;7.10;;
6955;SDS011;50345;51.136;16.886;2022-08-06T01:54:06;9.13;;;8.50;;
6955;SDS011;50345;51.136;16.886;2022-08-06T01:56:35;7.80;;;7.03;;
6955;SDS011;50345;51.136;16.886;2022-08-06T01:59:04;8.30;;;7.70;;
6955;SDS011;50345;51.136;16.886;2022-08-06T02:01:31;8.27;;;7.10;;
6955;SDS011;50345;51.136;16.886;2022-08-06T02:03:59;9.50;;;7.70;;
6955;SDS011;50345;51.136;16.886;2022-08-06T02:06:28;7.13;;;6.53;;
6955;SDS011;50345;51.136;16.886;2022-08-06T02:09:00;7.47;;;6.87;;
6955;SDS011;50345;51.136;16.886;2022-08-06T02:11:30;8.10;;;7.40;;
6955;SDS011;50345;51.136;16.886;2022-08-06T02:13:58;7.00;;;6.23;;
6955;SDS011;50345;51.136;16.886;2022-08-06T02:16:27;6.73;;;6.13;;
6955;SDS011;50345;51.136;16.886;2022-08-06T02:18:56;7.10;;;6.40;;
6955;SDS011;50345;51.136;16.886;2022-08-06T02:21:23;6.27;;;5.77;;
6955;SDS011;50345;51.136;16.886;2022-08-06T02:23:51;5.83;;;5.30;;
6955;SDS011;50345;51.136;16.886;2022-08-06T02:26:18;6.70;;;6.20;;
6955;SDS011;50345;51.136;16.886;2022-08-06T02:28:46;8.77;;;5.97;;
6955;SDS011;50345;51.136;16.886;2022-08-06T02:31:13;6.43;;;5.90;;
6955;SDS011;50345;51.136;16.886;2022-08-06T02:33:39;7.10;;;6.53;;
6955;SDS011;50345;51.136;16.886;2022-08-06T02:36:15;6.53;;;5.93;;
6955;SDS011;50345;51.136;16.886;2022-08-06T02:38:53;6.50;;;5.83;;
6955;SDS011;50345;51.136;16.886;2022-08-06T02:41:32;5.57;;;5.23;;
6955;SDS011;50345;51.136;16.886;2022-08-06T02:44:13;7.23;;;6.63;;
6955;SDS011;50345;51.136;16.886;2022-08-06T02:46:44;5.40;;;4.90;;
6955;SDS011;50345;51.136;16.886;2022-08-06T02:49:19;5.40;;;4.40;;
6955;SDS011;50345;51.136;16.886;2022-08-06T02:51:51;4.50;;;4.20;;
6955;SDS011;50345;51.136;16.886;2022-08-06T02:54:23;4.17;;;3.87;;
6955;SDS011;50345;51.136;16.886;2022-08-06T02:56:54;4.97;;;3.70;;
6955;SDS011;50345;51.136;16.886;2022-08-06T02:59:26;5.07;;;4.23;;
6955;SDS011;50345;51.136;16.886;2022-08-06T03:01:56;13.40;;;5.73;;
6955;SDS011;50345;51.136;16.886;2022-08-06T03:04:25;5.30;;;4.20;;
6955;SDS011;50345;51.136;16.886;2022-08-06T03:06:52;5.20;;;4.23;;
6955;SDS011;50345;51.136;16.886;2022-08-06T03:09:19;7.00;;;4.30;;
6955;SDS011;50345;51.136;16.886;2022-08-06T03:11:46;5.43;;;4.90;;
6955;SDS011;50345;51.136;16.886;2022-08-06T03:14:14;7.93;;;3.80;;
6955;SDS011;50345;51.136;16.886;2022-08-06T03:16:41;8.60;;;4.20;;
6955;SDS011;50345;51.136;16.886;2022-08-06T03:19:08;11.93;;;4.00;;
6955;SDS011;50345;51.136;16.886;2022-08-06T03:21:36;5.10;;;4.30;;
6955;SDS011;50345;51.136;16.886;2022-08-06T03:24:02;3.97;;;3.57;;
6955;SDS011;50345;51.136;16.886;2022-08-06T03:26:29;5.53;;;3.30;;
6955;SDS011;50345;51.136;16.886;2022-08-06T03:28:56;6.17;;;3.87;;
6955;SDS011;50345;51.136;16.886;2022-08-06T03:31:25;4.30;;;4.00;;
6955;SDS011;50345;51.136;16.886;2022-08-06T03:33:52;3.73;;;3.20;;
6955;SDS011;50345;51.136;16.886;2022-08-06T03:36:20;2.70;;;2.50;;
6955;SDS011;50345;51.136;16.886;2022-08-06T03:38:50;4.90;;;3.00;;
6955;SDS011;50345;51.136;16.886;2022-08-06T03:41:16;3.03;;;2.83;;
6955;SDS011;50345;51.136;16.886;2022-08-06T03:43:42;3.37;;;3.17;;
6955;SDS011;50345;51.136;16.886;2022-08-06T03:46:08;4.80;;;2.87;;
6955;SDS011;50345;51.136;16.886;2022-08-06T03:48:36;5.03;;;2.70;;
6955;SDS011;50345;51.136;16.886;2022-08-06T03:51:15;2.93;;;2.50;;
6955;SDS011;50345;51.136;16.886;2022-08-06T03:53:42;4.00;;;2.70;;
6955;SDS011;50345;51.136;16.886;2022-08-06T03:56:11;2.40;;;2.20;;
6955;SDS011;50345;51.136;16.886;2022-08-06T03:58:43;2.20;;;2.00;;
6955;SDS011;50345;51.136;16.886;2022-08-06T04:01:12;2.60;;;2.40;;
6955;SDS011;50345;51.136;16.886;2022-08-06T04:03:40;2.97;;;2.63;;
6955;SDS011;50345;51.136;16.886;2022-08-06T04:06:07;2.72;;;2.10;;
6955;SDS011;50345;51.136;16.886;2022-08-06T04:08:37;2.22;;;2.05;;
6955;SDS011;50345;51.136;16.886;2022-08-06T04:11:04;2.30;;;2.20;;
6955;SDS011;50345;51.136;16.886;2022-08-06T04:13:30;2.80;;;2.60;;
6955;SDS011;50345;51.136;16.886;2022-08-06T04:15:57;3.90;;;3.60;;
6955;SDS011;50345;51.136;16.886;2022-08-06T04:18:33;2.50;;;2.25;;
6955;SDS011;50345;51.136;16.886;2022-08-06T04:21:01;4.32;;;2.40;;
6955;SDS011;50345;51.136;16.886;2022-08-06T04:23:29;2.83;;;2.47;;
6955;SDS011;50345;51.136;16.886;2022-08-06T04:25:55;3.23;;;2.30;;
6955;SDS011;50345;51.136;16.886;2022-08-06T04:28:23;2.95;;;2.47;;
6955;SDS011;50345;51.136;16.886;2022-08-06T04:30:49;2.75;;;2.38;;
6955;SDS011;50345;51.136;16.886;2022-08-06T04:33:18;2.50;;;2.22;;
6955;SDS011;50345;51.136;16.886;2022-08-06T04:35:46;2.50;;;2.30;;
6955;SDS011;50345;51.136;16.886;2022-08-06T04:38:12;4.63;;;2.13;;
6955;SDS011;50345;51.136;16.886;2022-08-06T04:40:39;6.90;;;2.40;;
6955;SDS011;50345;51.136;16.886;2022-08-06T04:43:07;2.15;;;2.00;;
6955;SDS011;50345;51.136;16.886;2022-08-06T04:45:37;4.13;;;2.15;;
6955;SDS011;50345;51.136;16.886;2022-08-06T04:48:05;3.75;;;2.42;;
6955;SDS011;50345;51.136;16.886;2022-08-06T04:50:33;5.40;;;2.90;;
6955;SDS011;50345;51.136;16.886;2022-08-06T04:55:32;7.25;;;3.00;;
6955;SDS011;50345;51.136;16.886;2022-08-06T04:57:57;2.73;;;2.53;;
6955;SDS011;50345;51.136;16.886;2022-08-06T05:00:23;3.37;;;3.07;;
6955;SDS011;50345;51.136;16.886;2022-08-06T05:02:50;3.10;;;2.90;;
6955;SDS011;50345;51.136;16.886;2022-08-06T05:05:16;2.90;;;2.70;;
6955;SDS011;50345;51.136;16.886;2022-08-06T05:07:44;4.88;;;3.38;;
6955;SDS011;50345;51.136;16.886;2022-08-06T05:10:10;3.60;;;3.30;;
6955;SDS011;50345;51.136;16.886;2022-08-06T05:12:37;6.10;;;3.03;;
6955;SDS011;50345;51.136;16.886;2022-08-06T05:15:11;3.50;;;2.90;;
6955;SDS011;50345;51.136;16.886;2022-08-06T05:20:31;3.70;;;3.33;;
6955;SDS011;50345;51.136;16.886;2022-08-06T05:22:59;3.13;;;2.92;;
6955;SDS011;50345;51.136;16.886;2022-08-06T05:25:35;4.35;;;3.00;;
6955;SDS011;50345;51.136;16.886;2022-08-06T05:28:02;3.20;;;2.33;;
6955;SDS011;50345;51.136;16.886;2022-08-06T05:30:30;3.67;;;2.70;;
6955;SDS011;50345;51.136;16.886;2022-08-06T05:32:55;2.90;;;2.60;;
6955;SDS011;50345;51.136;16.886;2022-08-06T05:35:21;2.80;;;2.60;;
6955;SDS011;50345;51.136;16.886;2022-08-06T05:37:47;3.80;;;3.57;;
6955;SDS011;50345;51.136;16.886;2022-08-06T05:40:12;4.60;;;2.93;;
6955;SDS011;50345;51.136;16.886;2022-08-06T05:42:38;3.47;;;3.13;;
6955;SDS011;50345;51.136;16.886;2022-08-06T05:45:04;3.80;;;3.30;;
6955;SDS011;50345;51.136;16.886;2022-08-06T05:47:33;3.00;;;2.80;;
6955;SDS011;50345;51.136;16.886;2022-08-06T05:50:06;3.10;;;2.80;;
6955;SDS011;50345;51.136;16.886;2022-08-06T05:52:36;5.05;;;2.80;;
6955;SDS011;50345;51.136;16.886;2022-08-06T05:55:04;3.97;;;2.95;;
6955;SDS011;50345;51.136;16.886;2022-08-06T05:57:39;5.53;;;3.00;;
6955;SDS011;50345;51.136;16.886;2022-08-06T06:00:22;3.33;;;3.10;;
6955;SDS011;50345;51.136;16.886;2022-08-06T06:02:52;3.13;;;2.90;;
6955;SDS011;50345;51.136;16.886;2022-08-06T06:05:20;3.45;;;2.97;;
6955;SDS011;50345;51.136;16.886;2022-08-06T06:07:48;5.88;;;3.10;;
6955;SDS011;50345;51.136;16.886;2022-08-06T06:10:14;3.10;;;2.90;;
6955;SDS011;50345;51.136;16.886;2022-08-06T06:12:41;3.10;;;2.80;;
6955;SDS011;50345;51.136;16.886;2022-08-06T06:15:09;3.42;;;3.13;;
6955;SDS011;50345;51.136;16.886;2022-08-06T06:23:13;3.50;;;3.20;;
6955;SDS011;50345;51.136;16.886;2022-08-06T06:25:50;3.30;;;3.10;;
6955;SDS011;50345;51.136;16.886;2022-08-06T06:36:44;3.67;;;3.25;;
6955;SDS011;50345;51.136;16.886;2022-08-06T06:39:21;3.35;;;3.15;;
6955;SDS011;50345;51.136;16.886;2022-08-06T06:42:06;3.50;;;3.15;;
6955;SDS011;50345;51.136;16.886;2022-08-06T06:45:00;3.35;;;3.15;;
6955;SDS011;50345;51.136;16.886;2022-08-06T06:47:45;3.72;;;3.40;;
6955;SDS011;50345;51.136;16.886;2022-08-06T06:50:15;3.97;;;3.40;;
6955;SDS011;50345;51.136;16.886;2022-08-06T06:52:46;3.00;;;2.80;;
6955;SDS011;50345;51.136;16.886;2022-08-06T06:55:28;4.18;;;3.22;;
6955;SDS011;50345;51.136;16.886;2022-08-06T06:58:20;3.50;;;3.20;;
6955;SDS011;50345;51.136;16.886;2022-08-06T07:00:51;4.65;;;3.95;;
6955;SDS011;50345;51.136;16.886;2022-08-06T07:03:18;3.65;;;3.35;;
6955;SDS011;50345;51.136;16.886;2022-08-06T07:05:46;4.78;;;3.33;;
6955;SDS011;50345;51.136;16.886;2022-08-06T07:08:13;3.58;;;3.28;;
6955;SDS011;50345;51.136;16.886;2022-08-06T07:10:41;2.53;;;2.42;;
6955;SDS011;50345;51.136;16.886;2022-08-06T07:13:09;4.88;;;3.10;;
6955;SDS011;50345;51.136;16.886;2022-08-06T07:15:37;4.30;;;3.90;;
6955;SDS011;50345;51.136;16.886;2022-08-06T07:18:05;7.78;;;3.83;;
6955;SDS011;50345;51.136;16.886;2022-08-06T07:20:31;4.85;;;3.22;;
6955;SDS011;50345;51.136;16.886;2022-08-06T07:23:04;5.47;;;3.03;;
6955;SDS011;50345;51.136;16.886;2022-08-06T07:25:37;2.85;;;2.65;;
6955;SDS011;50345;51.136;16.886;2022-08-06T07:28:06;3.10;;;2.78;;
6955;SDS011;50345;51.136;16.886;2022-08-06T07:30:35;5.75;;;3.40;;
6955;SDS011;50345;51.136;16.886;2022-08-06T07:33:02;3.50;;;3.30;;
6955;SDS011;50345;51.136;16.886;2022-08-06T07:35:28;3.85;;;3.17;;
6955;SDS011;50345;51.136;16.886;2022-08-06T07:37:57;4.97;;;3.65;;
6955;SDS011;50345;51.136;16.886;2022-08-06T07:41:11;3.05;;;2.85;;
6955;SDS011;50345;51.136;16.886;2022-08-06T07:43:25;4.13;;;3.45;;
6955;SDS011;50345;51.136;16.886;2022-08-06T07:45:54;3.08;;;2.88;;
6955;SDS011;50345;51.136;16.886;2022-08-06T07:48:24;8.20;;;7.32;;
6955;SDS011;50345;51.136;16.886;2022-08-06T07:50:53;4.82;;;4.40;;
6955;SDS011;50345;51.136;16.886;2022-08-06T07:53:19;3.25;;;3.05;;
6955;SDS011;50345;51.136;16.886;2022-08-06T07:55:46;3.33;;;3.13;;
6955;SDS011;50345;51.136;16.886;2022-08-06T07:58:12;3.20;;;2.90;;
6955;SDS011;50345;51.136;16.886;2022-08-06T08:00:39;3.78;;;3.47;;
6955;SDS011;50345;51.136;16.886;2022-08-06T08:03:05;5.80;;;3.40;;
6955;SDS011;50345;51.136;16.886;2022-08-06T08:05:50;3.67;;;3.28;;
6955;SDS011;50345;51.136;16.886;2022-08-06T08:08:34;3.30;;;3.10;;
6955;SDS011;50345;51.136;16.886;2022-08-06T08:11:00;3.83;;;3.50;;
6955;SDS011;50345;51.136;16.886;2022-08-06T08:13:27;4.90;;;2.88;;
6955;SDS011;50345;51.136;16.886;2022-08-06T08:15:54;7.43;;;3.33;;
6955;SDS011;50345;51.136;16.886;2022-08-06T08:18:20;3.50;;;3.30;;
6955;SDS011;50345;51.136;16.886;2022-08-06T08:20:52;4.82;;;2.50;;
6955;SDS011;50345;51.136;16.886;2022-08-06T08:23:18;3.40;;;3.13;;
6955;SDS011;50345;51.136;16.886;2022-08-06T08:25:45;11.02;;;10.00;;
6955;SDS011;50345;51.136;16.886;2022-08-06T08:28:11;6.67;;;6.07;;
6955;SDS011;50345;51.136;16.886;2022-08-06T08:30:38;4.65;;;3.45;;
6955;SDS011;50345;51.136;16.886;2022-08-06T08:33:05;3.50;;;3.20;;
6955;SDS011;50345;51.136;16.886;2022-08-06T08:35:30;3.43;;;3.13;;
6955;SDS011;50345;51.136;16.886;2022-08-06T08:37:56;3.27;;;3.03;;
6955;SDS011;50345;51.136;16.886;2022-08-06T08:40:22;10.83;;;4.87;;
6955;SDS011;50345;51.136;16.886;2022-08-06T08:42:49;4.83;;;2.60;;
6955;SDS011;50345;51.136;16.886;2022-08-06T08:45:18;3.70;;;3.00;;
6955;SDS011;50345;51.136;16.886;2022-08-06T08:47:46;3.00;;;2.80;;
6955;SDS011;50345;51.136;16.886;2022-08-06T08:50:15;3.00;;;2.70;;
6955;SDS011;50345;51.136;16.886;2022-08-06T08:52:43;4.60;;;2.57;;
6955;SDS011;50345;51.136;16.886;2022-08-06T08:55:09;2.80;;;2.60;;
6955;SDS011;50345;51.136;16.886;2022-08-06T08:57:37;2.80;;;2.50;;
6955;SDS011;50345;51.136;16.886;2022-08-06T09:00:04;3.40;;;3.10;;
6955;SDS011;50345;51.136;16.886;2022-08-06T09:02:31;3.33;;;3.07;;
6955;SDS011;50345;51.136;16.886;2022-08-06T09:04:57;6.20;;;3.30;;
6955;SDS011;50345;51.136;16.886;2022-08-06T09:07:24;4.73;;;4.43;;
6955;SDS011;50345;51.136;16.886;2022-08-06T09:09:51;3.53;;;3.33;;
6955;SDS011;50345;51.136;16.886;2022-08-06T09:12:17;3.00;;;2.80;;
6955;SDS011;50345;51.136;16.886;2022-08-06T09:14:43;2.50;;;2.37;;
6955;SDS011;50345;51.136;16.886;2022-08-06T09:17:11;3.40;;;3.20;;
6955;SDS011;50345;51.136;16.886;2022-08-06T09:19:37;3.33;;;3.13;;
6955;SDS011;50345;51.136;16.886;2022-08-06T09:22:03;3.33;;;3.03;;
6955;SDS011;50345;51.136;16.886;2022-08-06T09:24:29;4.03;;;3.80;;
6955;SDS011;50345;51.136;16.886;2022-08-06T09:29:27;3.17;;;2.97;;
6955;SDS011;50345;51.136;16.886;2022-08-06T09:31:52;2.77;;;2.57;;
6955;SDS011;50345;51.136;16.886;2022-08-06T09:34:19;3.17;;;2.97;;
6955;SDS011;50345;51.136;16.886;2022-08-06T09:36:45;4.73;;;2.63;;
6955;SDS011;50345;51.136;16.886;2022-08-06T09:39:11;3.53;;;2.40;;
6955;SDS011;50345;51.136;16.886;2022-08-06T09:41:47;2.70;;;2.50;;
6955;SDS011;50345;51.136;16.886;2022-08-06T09:44:14;3.43;;;3.13;;
6955;SDS011;50345;51.136;16.886;2022-08-06T09:46:43;2.97;;;2.60;;
6955;SDS011;50345;51.136;16.886;2022-08-06T09:49:11;2.30;;;2.03;;
6955;SDS011;50345;51.136;16.886;2022-08-06T09:51:38;3.10;;;2.23;;
6955;SDS011;50345;51.136;16.886;2022-08-06T09:54:06;2.83;;;2.40;;
6955;SDS011;50345;51.136;16.886;2022-08-06T09:56:34;3.40;;;2.57;;
6955;SDS011;50345;51.136;16.886;2022-08-06T09:59:02;2.43;;;2.33;;
6955;SDS011;50345;51.136;16.886;2022-08-06T10:01:30;3.20;;;2.10;;
6955;SDS011;50345;51.136;16.886;2022-08-06T10:04:03;2.63;;;2.43;;
6955;SDS011;50345;51.136;16.886;2022-08-06T10:06:29;6.60;;;5.90;;
6955;SDS011;50345;51.136;16.886;2022-08-06T10:09:05;3.20;;;3.00;;
6955;SDS011;50345;51.136;16.886;2022-08-06T10:11:33;2.27;;;2.07;;
6955;SDS011;50345;51.136;16.886;2022-08-06T10:14:03;3.03;;;2.80;;
6955;SDS011;50345;51.136;16.886;2022-08-06T10:16:29;2.17;;;2.07;;
6955;SDS011;50345;51.136;16.886;2022-08-06T10:18:56;2.63;;;2.43;;
6955;SDS011;50345;51.136;16.886;2022-08-06T10:21:24;2.07;;;1.83;;
6955;SDS011;50345;51.136;16.886;2022-08-06T10:23:54;3.23;;;2.93;;
6955;SDS011;50345;51.136;16.886;2022-08-06T10:26:26;1.97;;;1.87;;
6955;SDS011;50345;51.136;16.886;2022-08-06T10:28:52;2.10;;;2.00;;
6955;SDS011;50345;51.136;16.886;2022-08-06T10:31:19;2.07;;;1.93;;
6955;SDS011;50345;51.136;16.886;2022-08-06T10:33:59;3.53;;;2.23;;
6955;SDS011;50345;51.136;16.886;2022-08-06T10:36:45;2.40;;;2.20;;
6955;SDS011;50345;51.136;16.886;2022-08-06T10:39:14;8.90;;;8.10;;
6955;SDS011;50345;51.136;16.886;2022-08-06T10:41:40;3.03;;;2.60;;
6955;SDS011;50345;51.136;16.886;2022-08-06T10:44:09;3.00;;;2.80;;
6955;SDS011;50345;51.136;16.886;2022-08-06T10:46:35;2.50;;;2.30;;
6955;SDS011;50345;51.136;16.886;2022-08-06T10:49:01;5.23;;;2.50;;
6955;SDS011;50345;51.136;16.886;2022-08-06T10:51:27;2.07;;;1.97;;
6955;SDS011;50345;51.136;16.886;2022-08-06T10:53:54;2.43;;;2.10;;
6955;SDS011;50345;51.136;16.886;2022-08-06T10:56:20;3.93;;;2.10;;
6955;SDS011;50345;51.136;16.886;2022-08-06T10:58:46;2.03;;;1.93;;
6955;SDS011;50345;51.136;16.886;2022-08-06T11:01:34;2.43;;;2.23;;
6955;SDS011;50345;51.136;16.886;2022-08-06T11:04:21;2.20;;;2.00;;
6955;SDS011;50345;51.136;16.886;2022-08-06T11:15:55;2.00;;;1.80;;
6955;SDS011;50345;51.136;16.886;2022-08-06T11:18:22;2.10;;;1.93;;
6955;SDS011;50345;51.136;16.886;2022-08-06T11:20:49;1.83;;;1.73;;
6955;SDS011;50345;51.136;16.886;2022-08-06T11:25:45;1.50;;;1.40;;
6955;SDS011;50345;51.136;16.886;2022-08-06T11:28:12;3.00;;;1.87;;
6955;SDS011;50345;51.136;16.886;2022-08-06T11:30:42;1.40;;;1.30;;
6955;SDS011;50345;51.136;16.886;2022-08-06T11:33:09;2.13;;;1.60;;
6955;SDS011;50345;51.136;16.886;2022-08-06T11:38:02;3.03;;;1.57;;
6955;SDS011;50345;51.136;16.886;2022-08-06T11:40:28;2.10;;;1.40;;
6955;SDS011;50345;51.136;16.886;2022-08-06T11:43:40;1.30;;;1.13;;
6955;SDS011;50345;51.136;16.886;2022-08-06T11:51:42;1.17;;;1.07;;
6955;SDS011;50345;51.136;16.886;2022-08-06T11:54:16;1.27;;;1.20;;
6955;SDS011;50345;51.136;16.886;2022-08-06T11:59:26;1.30;;;1.20;;
6955;SDS011;50345;51.136;16.886;2022-08-06T12:01:52;2.03;;;1.17;;
6955;SDS011;50345;51.136;16.886;2022-08-06T12:09:58;1.93;;;1.10;;
6955;SDS011;50345;51.136;16.886;2022-08-06T12:14:54;2.30;;;1.03;;
6955;SDS011;50345;51.136;16.886;2022-08-06T12:17:21;2.23;;;1.43;;
6955;SDS011;50345;51.136;16.886;2022-08-06T12:19:49;1.07;;;0.97;;
6955;SDS011;50345;51.136;16.886;2022-08-06T12:22:16;2.50;;;1.30;;
6955;SDS011;50345;51.136;16.886;2022-08-06T12:24:42;1.20;;;1.10;;
6955;SDS011;50345;51.136;16.886;2022-08-06T12:27:12;1.73;;;1.07;;
6955;SDS011;50345;51.136;16.886;2022-08-06T12:29:39;2.73;;;1.27;;
6955;SDS011;50345;51.136;16.886;2022-08-06T12:32:22;2.63;;;1.23;;
6955;SDS011;50345;51.136;16.886;2022-08-06T12:34:49;1.10;;;1.00;;
6955;SDS011;50345;51.136;16.886;2022-08-06T12:37:16;1.40;;;1.30;;
6955;SDS011;50345;51.136;16.886;2022-08-06T12:39:42;2.53;;;1.10;;
6955;SDS011;50345;51.136;16.886;2022-08-06T12:42:28;1.40;;;1.10;;
6955;SDS011;50345;51.136;16.886;2022-08-06T12:44:54;1.93;;;1.07;;
6955;SDS011;50345;51.136;16.886;2022-08-06T12:47:21;1.17;;;1.07;;
6955;SDS011;50345;51.136;16.886;2022-08-06T12:49:47;1.23;;;1.13;;
6955;SDS011;50345;51.136;16.886;2022-08-06T12:52:13;2.20;;;1.13;;
6955;SDS011;50345;51.136;16.886;2022-08-06T12:54:42;2.10;;;0.90;;
6955;SDS011;50345;51.136;16.886;2022-08-06T12:57:08;1.67;;;1.10;;
6955;SDS011;50345;51.136;16.886;2022-08-06T12:59:34;0.80;;;0.80;;
6955;SDS011;50345;51.136;16.886;2022-08-06T13:02:01;2.13;;;1.40;;
6955;SDS011;50345;51.136;16.886;2022-08-06T13:04:28;1.63;;;1.20;;
6955;SDS011;50345;51.136;16.886;2022-08-06T13:06:54;2.47;;;0.90;;
6955;SDS011;50345;51.136;16.886;2022-08-06T13:09:30;1.47;;;1.00;;
6955;SDS011;50345;51.136;16.886;2022-08-06T13:11:56;1.20;;;1.20;;
6955;SDS011;50345;51.136;16.886;2022-08-06T13:14:22;1.00;;;0.90;;
6955;SDS011;50345;51.136;16.886;2022-08-06T13:16:48;1.00;;;0.97;;
6955;SDS011;50345;51.136;16.886;2022-08-06T13:19:15;1.30;;;1.20;;
6955;SDS011;50345;51.136;16.886;2022-08-06T13:21:43;1.87;;;1.00;;
6955;SDS011;50345;51.136;16.886;2022-08-06T13:24:09;2.50;;;1.10;;
6955;SDS011;50345;51.136;16.886;2022-08-06T13:26:50;1.37;;;1.27;;
6955;SDS011;50345;51.136;16.886;2022-08-06T13:29:18;1.20;;;1.00;;
6955;SDS011;50345;51.136;16.886;2022-08-06T13:31:44;1.33;;;1.23;;
6955;SDS011;50345;51.136;16.886;2022-08-06T13:34:12;1.50;;;1.40;;
6955;SDS011;50345;51.136;16.886;2022-08-06T13:36:39;1.30;;;1.20;;
6955;SDS011;50345;51.136;16.886;2022-08-06T13:39:19;3.17;;;1.23;;
6955;SDS011;50345;51.136;16.886;2022-08-06T13:41:46;1.10;;;1.00;;
6955;SDS011;50345;51.136;16.886;2022-08-06T13:44:28;1.40;;;1.30;;
6955;SDS011;50345;51.136;16.886;2022-08-06T13:46:54;1.50;;;1.00;;
6955;SDS011;50345;51.136;16.886;2022-08-06T13:49:20;1.10;;;0.90;;
6955;SDS011;50345;51.136;16.886;2022-08-06T13:51:46;1.40;;;1.30;;
6955;SDS011;50345;51.136;16.886;2022-08-06T13:54:12;1.60;;;0.90;;
6955;SDS011;50345;51.136;16.886;2022-08-06T13:56:38;2.33;;;1.20;;
6955;SDS011;50345;51.136;16.886;2022-08-06T13:59:04;1.23;;;1.13;;
6955;SDS011;50345;51.136;16.886;2022-08-06T14:01:30;1.63;;;1.00;;
6955;SDS011;50345;51.136;16.886;2022-08-06T14:03:56;1.87;;;1.20;;
6955;SDS011;50345;51.136;16.886;2022-08-06T14:06:22;1.30;;;1.13;;
6955;SDS011;50345;51.136;16.886;2022-08-06T14:08:48;1.33;;;1.13;;
6955;SDS011;50345;51.136;16.886;2022-08-06T14:11:15;1.30;;;1.20;;
6955;SDS011;50345;51.136;16.886;2022-08-06T14:13:41;1.00;;;1.00;;
6955;SDS011;50345;51.136;16.886;2022-08-06T14:16:07;1.30;;;1.20;;
6955;SDS011;50345;51.136;16.886;2022-08-06T14:18:33;1.17;;;1.07;;
6955;SDS011;50345;51.136;16.886;2022-08-06T14:20:59;1.10;;;1.00;;
6955;SDS011;50345;51.136;16.886;2022-08-06T14:23:25;2.40;;;1.20;;
6955;SDS011;50345;51.136;16.886;2022-08-06T14:25:50;2.80;;;1.00;;
6955;SDS011;50345;51.136;16.886;2022-08-06T14:28:16;1.30;;;1.20;;
6955;SDS011;50345;51.136;16.886;2022-08-06T14:30:42;1.30;;;1.20;;
6955;SDS011;50345;51.136;16.886;2022-08-06T14:33:08;2.50;;;1.30;;
6955;SDS011;50345;51.136;16.886;2022-08-06T14:35:35;2.83;;;1.03;;
6955;SDS011;50345;51.136;16.886;2022-08-06T14:38:05;1.30;;;1.20;;
6955;SDS011;50345;51.136;16.886;2022-08-06T14:40:31;1.50;;;1.40;;
6955;SDS011;50345;51.136;16.886;2022-08-06T14:43:16;1.87;;;1.10;;
6955;SDS011;50345;51.136;16.886;2022-08-06T14:46:00;2.50;;;1.50;;
6955;SDS011;50345;51.136;16.886;2022-08-06T14:48:26;3.53;;;1.10;;
6955;SDS011;50345;51.136;16.886;2022-08-06T14:50:52;1.47;;;1.20;;
6955;SDS011;50345;51.136;16.886;2022-08-06T14:53:18;1.40;;;1.30;;
6955;SDS011;50345;51.136;16.886;2022-08-06T14:55:45;2.17;;;1.23;;
6955;SDS011;50345;51.136;16.886;2022-08-06T14:58:10;3.67;;;1.33;;
6955;SDS011;50345;51.136;16.886;2022-08-06T15:00:37;1.20;;;1.10;;
6955;SDS011;50345;51.136;16.886;2022-08-06T15:03:03;1.20;;;1.10;;
6955;SDS011;50345;51.136;16.886;2022-08-06T15:05:29;1.37;;;1.10;;
6955;SDS011;50345;51.136;16.886;2022-08-06T15:07:59;1.67;;;1.30;;
6955;SDS011;50345;51.136;16.886;2022-08-06T15:10:25;1.50;;;1.40;;
6955;SDS011;50345;51.136;16.886;2022-08-06T15:12:51;4.30;;;1.83;;
6955;SDS011;50345;51.136;16.886;2022-08-06T15:15:17;1.00;;;1.00;;
6955;SDS011;50345;51.136;16.886;2022-08-06T15:17:43;3.30;;;1.10;;
6955;SDS011;50345;51.136;16.886;2022-08-06T15:20:09;1.70;;;0.93;;
6955;SDS011;50345;51.136;16.886;2022-08-06T15:22:35;1.07;;;0.97;;
6955;SDS011;50345;51.136;16.886;2022-08-06T15:25:02;1.97;;;1.00;;
6955;SDS011;50345;51.136;16.886;2022-08-06T15:27:28;1.90;;;0.90;;
6955;SDS011;50345;51.136;16.886;2022-08-06T15:29:54;4.00;;;0.90;;
6955;SDS011;50345;51.136;16.886;2022-08-06T15:32:22;1.07;;;0.97;;
6955;SDS011;50345;51.136;16.886;2022-08-06T15:34:48;1.37;;;0.97;;
6955;SDS011;50345;51.136;16.886;2022-08-06T15:37:14;7.00;;;1.10;;
6955;SDS011;50345;51.136;16.886;2022-08-06T15:39:40;1.37;;;0.90;;
6955;SDS011;50345;51.136;16.886;2022-08-06T15:42:06;0.73;;;0.73;;
6955;SDS011;50345;51.136;16.886;2022-08-06T15:44:32;1.00;;;1.00;;
6955;SDS011;50345;51.136;16.886;2022-08-06T15:47:01;1.57;;;0.90;;
6955;SDS011;50345;51.136;16.886;2022-08-06T15:49:29;1.40;;;0.90;;
6955;SDS011;50345;51.136;16.886;2022-08-06T15:51:58;1.70;;;1.10;;
6955;SDS011;50345;51.136;16.886;2022-08-06T15:54:24;1.00;;;0.90;;
6955;SDS011;50345;51.136;16.886;2022-08-06T15:56:50;0.83;;;0.83;;
6955;SDS011;50345;51.136;16.886;2022-08-06T15:59:16;1.97;;;0.87;;